createdAt,value
2022-08-18T00:00:53.029Z,11.27
2022-08-18T00:02:58.419Z,8.90
2022-08-18T00:05:03.223Z,10.85
2022-08-18T00:07:09.673Z,9.30
2022-08-18T00:09:11.928Z,10.35
2022-08-18T00:11:13.566Z,11.07
2022-08-18T00:13:15.008Z,10.93
2022-08-18T00:15:17.986Z,9.20
2022-08-18T00:17:19.777Z,10.73
2022-08-18T00:19:43.500Z,11.23
2022-08-18T00:21:44.073Z,10.82
2022-08-18T00:23:45.584Z,10.98
2022-08-18T00:25:47.556Z,11.63
2022-08-18T00:27:49.173Z,10.18
2022-08-18T00:29:51.818Z,11.25
2022-08-18T00:31:53.435Z,9.70
2022-08-18T00:33:55.260Z,9.05
2022-08-18T00:35:56.852Z,8.77
2022-08-18T00:37:59.522Z,10.02
2022-08-18T00:40:01.193Z,10.52
2022-08-18T00:42:12.887Z,9.45
2022-08-18T00:44:30.896Z,10.50
2022-08-18T00:46:34.541Z,10.60
2022-08-18T00:48:36.242Z,10.88
2022-08-18T00:50:57.232Z,9.75
2022-08-18T00:53:04.891Z,9.15
2022-08-18T00:55:07.322Z,8.13
2022-08-18T00:57:08.936Z,9.07
2022-08-18T00:59:28.864Z,9.45
2022-08-18T01:01:31.937Z,8.73
2022-08-18T01:03:34.262Z,7.95
2022-08-18T01:05:40.952Z,8.93
2022-08-18T01:07:46.796Z,8.60
2022-08-18T01:09:49.606Z,10.27
2022-08-18T01:11:51.485Z,9.30
2022-08-18T01:13:53.987Z,9.48
2022-08-18T01:15:55.997Z,8.80
2022-08-18T01:18:17.507Z,9.15
2022-08-18T01:20:40.667Z,8.77
2022-08-18T01:23:04.645Z,9.65
2022-08-18T01:25:26.211Z,9.13
2022-08-18T01:27:31.978Z,9.32
2022-08-18T01:29:40.229Z,10.30
2022-08-18T01:31:55.450Z,9.80
2022-08-18T01:33:57.517Z,10.55
2022-08-18T01:36:01.331Z,9.63
2022-08-18T01:38:02.903Z,10.25
2022-08-18T01:41:27.238Z,11.75
2022-08-18T01:42:28.865Z,11.57
2022-08-18T01:44:30.432Z,11.43
2022-08-18T01:46:33.762Z,11.98
2022-08-18T01:48:36.097Z,11.35
2022-08-18T01:50:39.875Z,11.07
2022-08-18T01:52:41.360Z,10.88
2022-08-18T01:54:42.910Z,10.93
2022-08-18T01:56:44.569Z,12.63
2022-08-18T01:58:47.809Z,12.65
2022-08-18T02:00:49.344Z,12.35
2022-08-18T02:02:57.281Z,10.90
2022-08-18T02:05:07.950Z,12.60
2022-08-18T02:07:10.948Z,10.98
2022-08-18T02:09:13.131Z,11.60
2022-08-18T02:11:14.916Z,12.55
2022-08-18T02:13:16.720Z,12.27
2022-08-18T02:15:18.251Z,12.02
2022-08-18T02:17:19.950Z,11.30
2022-08-18T02:19:21.680Z,11.00
2022-08-18T02:21:23.309Z,11.52
2022-08-18T02:23:25.310Z,12.85
2022-08-18T02:25:26.880Z,13.98
2022-08-18T02:27:28.601Z,13.93
2022-08-18T02:29:30.213Z,11.52
2022-08-18T02:31:37.344Z,12.65
2022-08-18T02:33:40.808Z,13.70
2022-08-18T02:36:00.891Z,13.40
2022-08-18T02:38:13.332Z,12.15
2022-08-18T02:40:28.668Z,12.60
2022-08-18T02:42:40.785Z,11.65
2022-08-18T02:44:51.918Z,12.68
2022-08-18T02:47:03.735Z,12.38
2022-08-18T02:49:13.933Z,12.25
2022-08-18T02:51:25.779Z,12.02
2022-08-18T02:53:39.614Z,12.10
2022-08-18T02:55:52.892Z,11.98
2022-08-18T02:57:56.700Z,11.82
2022-08-18T02:59:59.740Z,11.82
2022-08-18T03:02:01.467Z,13.55
2022-08-18T03:04:03.179Z,11.63
2022-08-18T03:06:05.051Z,11.65
2022-08-18T03:08:06.627Z,11.60
2022-08-18T03:10:31.415Z,10.90
2022-08-18T03:12:30.115Z,11.00
2022-08-18T03:14:31.761Z,11.50
2022-08-18T03:16:34.277Z,11.77
2022-08-18T03:18:36.520Z,11.38
2022-08-18T03:20:38.277Z,12.02
2022-08-18T03:22:39.988Z,12.55
2022-08-18T03:24:41.704Z,12.13
2022-08-18T03:26:43.950Z,13.07
2022-08-18T03:28:47.032Z,11.35
2022-08-18T03:30:48.619Z,12.00
2022-08-18T03:32:50.636Z,11.95
2022-08-18T03:34:52.302Z,11.45
2022-08-18T03:36:53.868Z,11.35
2022-08-18T03:38:55.538Z,10.02
2022-08-18T03:40:57.100Z,10.02
2022-08-18T03:42:58.753Z,12.60
2022-08-18T03:45:13.265Z,11.63
2022-08-18T03:47:19.706Z,11.57
2022-08-18T03:49:21.209Z,10.00
2022-08-18T03:51:25.288Z,10.15
2022-08-18T03:53:26.853Z,10.70
2022-08-18T03:55:29.439Z,11.20
2022-08-18T03:57:32.752Z,13.07
2022-08-18T03:59:43.877Z,12.27
2022-08-18T04:01:46.611Z,10.15
2022-08-18T04:03:51.332Z,10.73
2022-08-18T04:05:53.993Z,12.30
2022-08-18T04:07:57.206Z,11.20
2022-08-18T04:09:58.715Z,10.60
2022-08-18T04:12:04.056Z,12.73
2022-08-18T04:14:08.444Z,11.35
2022-08-18T04:16:10.286Z,13.07
2022-08-18T04:18:12.386Z,13.52
2022-08-18T04:20:13.946Z,14.05
2022-08-18T04:22:17.355Z,13.18
2022-08-18T04:24:20.169Z,12.73
2022-08-18T04:26:22.009Z,12.57
2022-08-18T04:28:23.573Z,11.80
2022-08-18T04:30:25.088Z,11.35
2022-08-18T04:32:30.177Z,11.25
2022-08-18T04:34:33.307Z,11.95
2022-08-18T04:36:35.960Z,14.35
2022-08-18T04:38:37.945Z,13.43
2022-08-18T04:40:41.384Z,12.18
2022-08-18T04:42:44.877Z,12.63
2022-08-18T04:44:46.925Z,13.30
2022-08-18T04:46:52.013Z,14.02
2022-08-18T04:48:59.263Z,12.18
2022-08-18T04:51:09.652Z,11.93
2022-08-18T04:53:29.783Z,13.95
2022-08-18T04:55:31.347Z,13.15
2022-08-18T04:57:34.124Z,13.60
2022-08-18T04:59:37.261Z,12.82
2022-08-18T05:01:45.333Z,13.43
2022-08-18T05:03:50.392Z,14.20
2022-08-18T05:05:53.300Z,13.25
2022-08-18T05:07:55.365Z,14.80
2022-08-18T05:09:57.058Z,14.20
2022-08-18T05:11:58.876Z,13.88
2022-08-18T05:14:01.651Z,13.48
2022-08-18T05:16:18.144Z,11.95
2022-08-18T05:18:26.680Z,13.40
2022-08-18T05:20:28.433Z,13.02
2022-08-18T05:22:31.807Z,13.10
2022-08-18T05:24:37.044Z,13.30
2022-08-18T05:26:41.520Z,12.07
2022-08-18T05:28:43.857Z,12.90
2022-08-18T05:30:46.995Z,11.75
2022-08-18T05:32:50.331Z,12.07
2022-08-18T05:34:52.344Z,13.40
2022-08-18T05:37:01.397Z,12.02
2022-08-18T05:39:16.957Z,12.68
2022-08-18T05:41:30.555Z,13.43
2022-08-18T05:43:51.293Z,12.60
2022-08-18T05:46:03.159Z,12.60
2022-08-18T05:48:12.443Z,12.70
2022-08-18T05:50:24.156Z,12.05
2022-08-18T05:52:54.075Z,13.45
2022-08-18T05:55:29.074Z,11.93
2022-08-18T05:57:45.963Z,14.32
2022-08-18T05:59:58.382Z,13.50
2022-08-18T06:02:17.303Z,13.70
2022-08-18T06:04:29.667Z,13.05
2022-08-18T06:06:32.371Z,13.20
2022-08-18T06:08:40.595Z,13.55
2022-08-18T06:10:44.309Z,13.70
2022-08-18T06:12:49.259Z,12.40
2022-08-18T06:14:50.977Z,13.95
2022-08-18T06:16:53.465Z,13.65
2022-08-18T06:19:13.692Z,12.30
2022-08-18T06:21:39.004Z,11.95
2022-08-18T06:24:01.324Z,13.40
2022-08-18T06:26:06.941Z,12.95
2022-08-18T06:28:13.275Z,13.50
2022-08-18T06:30:20.377Z,12.52
2022-08-18T06:32:28.420Z,12.77
2022-08-18T06:34:32.970Z,13.88
2022-08-18T06:36:40.648Z,12.75
2022-08-18T06:38:46.104Z,12.88
2022-08-18T06:40:48.612Z,11.55
2022-08-18T06:42:50.147Z,11.05
2022-08-18T06:45:02.032Z,11.98
2022-08-18T06:47:23.036Z,10.13
2022-08-18T06:49:24.612Z,10.63
2022-08-18T06:51:28.285Z,9.82
2022-08-18T06:53:48.180Z,8.55
2022-08-18T06:55:50.464Z,8.35
2022-08-18T06:57:56.190Z,9.15
2022-08-18T07:00:00.143Z,8.88
2022-08-18T07:02:21.934Z,7.93
2022-08-18T07:04:30.444Z,8.65
2022-08-18T07:06:32.096Z,7.60
2022-08-18T07:08:35.663Z,9.80
2022-08-18T07:10:39.369Z,9.52
2022-08-18T07:14:44.302Z,8.60
2022-08-18T07:19:08.842Z,8.40
2022-08-18T07:21:23.670Z,8.13
2022-08-18T07:23:44.200Z,7.97
2022-08-18T07:25:46.836Z,9.00
2022-08-18T07:27:49.447Z,9.05
2022-08-18T07:30:04.504Z,9.15
2022-08-18T07:32:21.126Z,9.27
2022-08-18T07:34:25.856Z,8.80
2022-08-18T07:36:29.952Z,8.60
2022-08-18T07:39:01.401Z,8.23
2022-08-18T07:41:07.320Z,9.25
2022-08-18T07:43:20.305Z,7.75
2022-08-18T07:45:31.656Z,7.95
2022-08-18T07:47:40.702Z,7.55
2022-08-18T07:50:13.434Z,8.05
2022-08-18T07:52:04.718Z,8.43
2022-08-18T07:54:31.211Z,8.30
2022-08-18T07:56:38.149Z,7.20
2022-08-18T07:58:43.105Z,7.68
2022-08-18T08:01:02.384Z,8.23
2022-08-18T08:03:18.939Z,7.60
2022-08-18T08:05:24.940Z,8.30
2022-08-18T08:07:30.382Z,7.55
2022-08-18T08:09:38.192Z,6.60
2022-08-18T08:11:58.427Z,8.35
2022-08-18T08:14:02.783Z,8.20
2022-08-18T08:16:16.353Z,8.35
2022-08-18T08:18:29.682Z,8.15
2022-08-18T08:20:50.825Z,9.15
2022-08-18T08:23:05.835Z,10.10
2022-08-18T08:25:35.070Z,10.05
2022-08-18T08:28:07.465Z,9.30
2022-08-18T08:30:12.518Z,8.80
2022-08-18T08:32:33.698Z,10.13
2022-08-18T08:34:35.129Z,6.75
2022-08-18T08:36:39.853Z,7.80
2022-08-18T08:38:49.573Z,6.75
2022-08-18T08:40:57.893Z,7.13
2022-08-18T08:43:13.236Z,5.72
2022-08-18T08:45:25.649Z,5.72
2022-08-18T08:47:46.176Z,6.00
2022-08-18T08:50:14.766Z,5.68
2022-08-18T08:52:26.125Z,6.55
2022-08-18T08:54:40.008Z,6.07
2022-08-18T08:56:51.983Z,6.50
2022-08-18T08:59:10.523Z,6.38
2022-08-18T09:01:30.698Z,5.97
2022-08-18T09:03:42.286Z,7.32
2022-08-18T09:05:56.785Z,6.93
2022-08-18T09:08:06.207Z,7.10
2022-08-18T09:10:26.979Z,7.13
2022-08-18T09:12:37.221Z,8.15
2022-08-18T09:14:57.159Z,9.93
2022-08-18T09:17:17.364Z,10.35
2022-08-18T09:19:42.416Z,12.30
2022-08-18T09:22:01.314Z,10.75
2022-08-18T09:24:11.006Z,10.07
2022-08-18T09:26:22.937Z,10.02
2022-08-18T09:28:28.007Z,9.20
2022-08-18T09:30:39.327Z,10.10
2022-08-18T09:32:53.082Z,10.38
2022-08-18T09:34:56.439Z,9.60
2022-08-18T09:37:05.015Z,9.38
2022-08-18T09:39:38.608Z,8.65
2022-08-18T09:41:49.026Z,9.32
2022-08-18T09:44:21.360Z,8.73
2022-08-18T09:46:47.949Z,7.60
2022-08-18T09:49:09.674Z,9.00
2022-08-18T09:51:30.119Z,7.90
2022-08-18T09:53:37.970Z,8.15
2022-08-18T09:55:51.984Z,7.32
2022-08-18T09:58:12.501Z,7.90
2022-08-18T10:00:26.688Z,8.05
2022-08-18T10:02:29.939Z,8.05
2022-08-18T10:04:31.634Z,6.18
2022-08-18T10:06:36.999Z,5.57
2022-08-18T10:08:52.706Z,6.55
2022-08-18T10:13:29.657Z,5.15
2022-08-18T10:15:34.323Z,4.22
2022-08-18T10:17:59.403Z,5.45
2022-08-18T10:20:25.958Z,4.57
2022-08-18T10:22:43.533Z,4.50
2022-08-18T10:24:53.975Z,4.85
2022-08-18T10:26:55.570Z,3.65
2022-08-18T10:29:05.250Z,4.45
2022-08-18T10:31:10.174Z,3.50
2022-08-18T10:33:17.674Z,3.25
2022-08-18T10:35:52.163Z,3.22
2022-08-18T10:37:54.211Z,3.03
2022-08-18T10:40:09.706Z,3.20
2022-08-18T10:42:19.889Z,3.33
2022-08-18T10:44:29.277Z,2.75
2022-08-18T10:46:42.374Z,2.65
2022-08-18T10:48:44.883Z,2.63
2022-08-18T10:50:47.140Z,2.58
2022-08-18T10:58:06.985Z,2.55
2022-08-18T11:00:19.316Z,2.63
2022-08-18T11:02:39.564Z,2.30
2022-08-18T11:04:43.383Z,2.35
2022-08-18T11:06:51.418Z,2.80
2022-08-18T11:08:57.729Z,1.95
2022-08-18T11:11:32.575Z,1.88
2022-08-18T11:13:28.338Z,2.10
2022-08-18T11:15:38.710Z,2.08
2022-08-18T11:17:49.377Z,2.10
2022-08-18T11:19:51.769Z,2.00
2022-08-18T11:21:53.395Z,2.13
2022-08-18T11:24:04.745Z,1.85
2022-08-18T11:26:18.403Z,2.60
2022-08-18T11:28:22.070Z,2.30
2022-08-18T11:30:37.507Z,2.85
2022-08-18T11:35:24.605Z,2.55
2022-08-18T11:37:48.843Z,3.08
2022-08-18T11:39:55.289Z,3.35
2022-08-18T11:41:58.114Z,3.38
2022-08-18T11:44:00.173Z,3.55
2022-08-18T11:46:11.599Z,3.67
2022-08-18T11:48:20.837Z,3.17
2022-08-18T11:50:32.589Z,3.67
2022-08-18T11:52:57.524Z,4.65
2022-08-18T11:55:14.606Z,3.45
2022-08-18T11:57:32.852Z,3.20
2022-08-18T11:59:54.868Z,2.50
2022-08-18T12:02:00.694Z,2.80
2022-08-18T12:04:22.784Z,3.42
2022-08-18T12:06:29.887Z,2.65
2022-08-18T12:08:56.983Z,2.30
2022-08-18T12:11:26.827Z,2.92
2022-08-18T12:13:31.824Z,3.50
2022-08-18T12:15:44.471Z,2.42
2022-08-18T12:17:52.167Z,2.70
2022-08-18T12:19:55.058Z,2.37
2022-08-18T12:21:59.807Z,1.60
2022-08-18T12:24:01.514Z,2.00
2022-08-18T12:26:03.529Z,1.80
2022-08-18T12:28:05.072Z,2.20
2022-08-18T12:32:48.862Z,1.45
2022-08-18T12:34:52.825Z,1.88
2022-08-18T12:36:58.724Z,2.30
2022-08-18T12:39:00.634Z,2.10
2022-08-18T12:41:03.157Z,2.85
2022-08-18T12:43:05.833Z,2.80
2022-08-18T12:45:08.741Z,2.28
2022-08-18T12:47:12.834Z,2.20
2022-08-18T12:49:18.967Z,1.80
2022-08-18T12:51:20.743Z,1.60
2022-08-18T12:53:30.131Z,1.92
2022-08-18T12:55:48.565Z,2.00
2022-08-18T13:00:16.999Z,2.45
2022-08-18T13:02:20.562Z,2.17
2022-08-18T13:04:22.636Z,2.22
2022-08-18T13:06:28.673Z,3.00
2022-08-18T13:08:33.798Z,2.17
2022-08-18T13:10:51.310Z,2.42
2022-08-18T13:12:58.046Z,2.70
2022-08-18T13:15:00.854Z,2.87
2022-08-18T13:17:03.206Z,3.50
2022-08-18T13:19:06.136Z,2.97
2022-08-18T13:21:15.307Z,3.33
2022-08-18T13:23:22.575Z,2.67
2022-08-18T13:25:32.327Z,2.85
2022-08-18T13:27:45.696Z,3.65
2022-08-18T13:29:47.302Z,2.60
2022-08-18T13:31:58.163Z,2.65
2022-08-18T13:34:00.390Z,3.22
2022-08-18T13:36:06.012Z,2.53
2022-08-18T13:38:15.889Z,2.85
2022-08-18T13:40:22.364Z,2.75
2022-08-18T13:42:28.486Z,2.20
2022-08-18T13:44:31.460Z,2.85
2022-08-18T13:46:32.993Z,2.95
2022-08-18T13:48:35.080Z,2.10
2022-08-18T13:50:40.950Z,2.03
2022-08-18T13:52:44.789Z,2.10
2022-08-18T13:54:46.688Z,2.20
2022-08-18T13:56:56.424Z,2.20
2022-08-18T13:59:00.554Z,1.88
2022-08-18T14:01:39.529Z,2.00
2022-08-18T14:03:42.621Z,1.92
2022-08-18T14:05:51.832Z,1.98
2022-08-18T14:07:54.603Z,2.00
2022-08-18T14:09:58.914Z,2.00
2022-08-18T14:12:15.960Z,2.22
2022-08-18T14:14:24.562Z,1.77
2022-08-18T14:16:27.587Z,1.33
2022-08-18T14:18:30.755Z,1.98
2022-08-18T14:20:51.281Z,1.90
2022-08-18T14:23:12.521Z,1.85
2022-08-18T14:25:33.453Z,1.85
2022-08-18T14:27:36.748Z,1.48
2022-08-18T14:29:45.776Z,1.88
2022-08-18T14:31:49.489Z,2.05
2022-08-18T14:33:55.513Z,1.98
2022-08-18T14:36:05.778Z,1.90
2022-08-18T14:38:09.837Z,1.83
2022-08-18T14:40:12.330Z,1.60
2022-08-18T14:42:15.092Z,1.75
2022-08-18T14:44:21.821Z,1.30
2022-08-18T14:46:30.113Z,1.95
2022-08-18T14:48:35.252Z,2.25
2022-08-18T14:50:37.130Z,1.60
2022-08-18T14:52:41.079Z,1.95
2022-08-18T14:54:46.335Z,2.25
2022-08-18T14:56:54.303Z,2.35
2022-08-18T14:59:01.834Z,1.83
2022-08-18T15:01:10.570Z,1.42
2022-08-18T15:03:14.965Z,2.00
2022-08-18T15:05:24.661Z,1.50
2022-08-18T15:07:28.529Z,1.65
2022-08-18T15:09:37.736Z,1.65
2022-08-18T15:11:43.273Z,1.45
2022-08-18T15:13:49.305Z,1.67
2022-08-18T15:15:53.099Z,1.55
2022-08-18T15:17:57.061Z,1.55
2022-08-18T15:20:03.849Z,1.50
2022-08-18T15:22:24.832Z,1.67
2022-08-18T15:24:44.930Z,1.38
2022-08-18T15:26:57.583Z,1.88
2022-08-18T15:29:10.778Z,1.55
2022-08-18T15:31:17.056Z,1.25
2022-08-18T15:33:21.998Z,1.40
2022-08-18T15:35:25.911Z,1.50
2022-08-18T15:37:28.784Z,1.70
2022-08-18T15:39:30.460Z,1.63
2022-08-18T15:41:40.063Z,1.02
2022-08-18T15:43:48.159Z,1.50
2022-08-18T15:45:56.239Z,1.23
2022-08-18T15:47:59.964Z,1.40
2022-08-18T15:50:06.801Z,1.63
2022-08-18T15:52:25.956Z,1.40
2022-08-18T15:54:27.862Z,1.05
2022-08-18T15:56:31.540Z,1.20
2022-08-18T16:00:34.622Z,1.67
2022-08-18T16:02:39.024Z,1.30
2022-08-18T16:04:42.998Z,1.98
2022-08-18T16:06:50.964Z,1.48
2022-08-18T16:08:54.503Z,1.67
2022-08-18T16:10:56.392Z,2.25
2022-08-18T16:12:59.211Z,1.85
2022-08-18T16:15:03.826Z,1.83
2022-08-18T16:17:18.181Z,2.25
2022-08-18T16:19:26.023Z,2.00
2022-08-18T16:21:32.461Z,2.25
2022-08-18T16:23:33.964Z,2.25
2022-08-18T16:25:39.480Z,2.47
2022-08-18T16:27:44.014Z,3.05
2022-08-18T16:29:45.653Z,2.25
2022-08-18T16:31:47.188Z,2.75
2022-08-18T16:33:48.747Z,2.75
2022-08-18T16:35:51.956Z,2.80
2022-08-18T16:37:53.806Z,2.35
2022-08-18T16:39:55.575Z,3.05
2022-08-18T16:41:57.647Z,3.17
2022-08-18T16:43:59.139Z,2.38
2022-08-18T16:46:02.702Z,2.55
2022-08-18T16:48:08.135Z,2.30
2022-08-18T16:50:11.755Z,2.13
2022-08-18T16:52:15.683Z,2.17
2022-08-18T16:54:17.230Z,2.40
2022-08-18T16:56:23.454Z,1.95
2022-08-18T16:58:43.662Z,2.17
2022-08-18T17:01:03.734Z,1.95
2022-08-18T17:03:25.188Z,1.98
2022-08-18T17:05:26.838Z,1.98
2022-08-18T17:07:32.479Z,2.00
2022-08-18T17:09:34.901Z,1.80
2022-08-18T17:11:36.556Z,2.13
2022-08-18T17:13:50.575Z,1.58
2022-08-18T17:15:52.362Z,1.95
2022-08-18T17:17:53.843Z,1.67
2022-08-18T17:19:55.648Z,1.60
2022-08-18T17:21:57.263Z,1.67
2022-08-18T17:24:00.016Z,1.98
2022-08-18T17:26:07.028Z,1.50
2022-08-18T17:28:10.073Z,1.73
2022-08-18T17:30:13.198Z,1.73
2022-08-18T17:32:20.364Z,1.50
2022-08-18T17:34:27.398Z,1.67
2022-08-18T17:36:33.883Z,1.65
2022-08-18T17:38:43.918Z,1.55
2022-08-18T17:40:48.411Z,1.55
2022-08-18T17:42:51.701Z,1.83
2022-08-18T17:45:01.612Z,1.42
2022-08-18T17:47:06.147Z,1.10
2022-08-18T17:49:18.098Z,1.20
2022-08-18T17:51:34.635Z,1.13
2022-08-18T17:53:36.517Z,1.35
2022-08-18T17:55:49.870Z,1.27
2022-08-18T17:57:58.626Z,1.10
2022-08-18T18:00:10.088Z,1.42
2022-08-18T18:02:29.007Z,1.73
2022-08-18T18:04:39.359Z,1.10
2022-08-18T18:06:48.262Z,1.67
2022-08-18T18:08:56.640Z,1.63
2022-08-18T18:11:13.027Z,1.85
2022-08-18T18:13:21.166Z,0.95
2022-08-18T18:15:33.968Z,2.45
2022-08-18T18:17:44.387Z,2.08
2022-08-18T18:19:56.448Z,1.20
2022-08-18T18:22:12.549Z,2.33
2022-08-18T18:24:23.693Z,1.58
2022-08-18T18:26:33.809Z,1.60
2022-08-18T18:28:36.031Z,1.70
2022-08-18T18:30:37.892Z,1.33
2022-08-18T18:32:58.739Z,2.05
2022-08-18T18:35:09.627Z,2.42
2022-08-18T18:37:32.116Z,1.55
2022-08-18T18:39:38.024Z,1.13
2022-08-18T18:41:40.942Z,1.70
2022-08-18T18:43:44.654Z,2.42
2022-08-18T18:46:05.025Z,1.77
2022-08-18T18:48:43.606Z,1.40
2022-08-18T18:50:36.104Z,1.83
2022-08-18T18:52:44.592Z,1.70
2022-08-18T18:54:49.796Z,1.65
2022-08-18T18:56:54.056Z,1.52
2022-08-18T18:59:01.782Z,2.15
2022-08-18T19:01:05.474Z,1.85
2022-08-18T19:03:10.596Z,1.13
2022-08-18T19:05:35.214Z,1.20
2022-08-18T19:08:03.686Z,1.35
2022-08-18T19:10:08.056Z,1.63
2022-08-18T19:12:09.877Z,1.38
2022-08-18T19:14:17.609Z,2.13
2022-08-18T19:16:24.110Z,2.10
2022-08-18T19:18:27.478Z,2.38
2022-08-18T19:20:36.262Z,1.97
2022-08-18T19:22:40.872Z,2.55
2022-08-18T19:24:46.087Z,2.08
2022-08-18T19:26:52.686Z,2.08
2022-08-18T19:29:12.834Z,2.05
2022-08-18T19:31:18.068Z,2.03
2022-08-18T19:33:27.855Z,2.65
2022-08-18T19:35:40.321Z,2.53
2022-08-18T19:38:00.717Z,3.55
2022-08-18T19:40:22.174Z,3.97
2022-08-18T19:42:35.246Z,3.17
2022-08-18T19:45:00.330Z,2.55
2022-08-18T19:47:16.712Z,2.58
2022-08-18T19:49:24.366Z,3.22
2022-08-18T19:51:29.064Z,2.67
2022-08-18T19:53:52.449Z,2.70
2022-08-18T19:55:55.230Z,2.45
2022-08-18T19:58:15.398Z,3.67
2022-08-18T20:00:22.929Z,2.50
2022-08-18T20:02:25.363Z,3.00
2022-08-18T20:04:27.067Z,3.13
2022-08-18T20:06:46.711Z,3.28
2022-08-18T20:08:56.068Z,3.28
2022-08-18T20:10:57.935Z,3.28
2022-08-18T20:13:11.331Z,3.30
2022-08-18T20:15:16.664Z,3.33
2022-08-18T20:17:20.514Z,3.08
2022-08-18T20:19:40.406Z,3.17
2022-08-18T20:21:44.190Z,3.13
2022-08-18T20:24:05.934Z,3.30
2022-08-18T20:26:28.208Z,4.10
2022-08-18T20:28:38.453Z,3.95
2022-08-18T20:30:40.104Z,4.68
2022-08-18T20:32:42.682Z,5.43
2022-08-18T20:34:47.175Z,4.10
2022-08-18T20:36:49.522Z,4.65
2022-08-18T20:38:53.114Z,4.93
2022-08-18T20:40:55.544Z,5.10
2022-08-18T20:43:07.807Z,3.80
2022-08-18T20:45:16.609Z,5.15
2022-08-18T20:47:29.511Z,5.13
2022-08-18T20:49:34.335Z,4.80
2022-08-18T20:51:45.907Z,5.68
2022-08-18T20:53:54.091Z,5.30
2022-08-18T20:56:31.392Z,5.60
2022-08-18T20:58:37.528Z,4.82
2022-08-18T21:00:41.563Z,5.28
2022-08-18T21:02:54.289Z,5.28
2022-08-18T21:05:00.109Z,4.93
2022-08-18T21:07:11.814Z,5.60
2022-08-18T21:09:19.234Z,5.55
2022-08-18T21:11:31.887Z,5.43
2022-08-18T21:13:59.310Z,5.00
2022-08-18T21:16:11.426Z,4.20
2022-08-18T21:18:25.050Z,4.07
2022-08-18T21:20:36.802Z,4.20
2022-08-18T21:22:47.577Z,4.57
2022-08-18T21:24:55.465Z,5.15
2022-08-18T21:27:22.884Z,4.70
2022-08-18T21:29:49.352Z,4.43
2022-08-18T21:32:08.742Z,4.32
2022-08-18T21:34:11.449Z,4.03
2022-08-18T21:36:13.638Z,5.45
2022-08-18T21:38:23.864Z,3.55
2022-08-18T21:40:48.595Z,3.60
2022-08-18T21:44:54.977Z,3.47
2022-08-18T21:47:05.585Z,3.10
2022-08-18T21:49:07.248Z,3.45
2022-08-18T21:51:18.159Z,2.78
2022-08-18T21:53:23.738Z,3.22
2022-08-18T21:55:30.303Z,3.70
2022-08-18T21:57:51.929Z,3.20
2022-08-18T22:00:13.167Z,2.78
2022-08-18T22:02:21.507Z,3.00
2022-08-18T22:04:27.923Z,2.70
2022-08-18T22:06:40.575Z,3.45
2022-08-18T22:09:23.994Z,3.83
2022-08-18T22:12:02.116Z,2.65
2022-08-18T22:14:18.534Z,3.08
2022-08-18T22:16:23.190Z,2.53
2022-08-18T22:20:44.532Z,2.03
2022-08-18T22:23:04.642Z,1.83
2022-08-18T22:25:06.659Z,2.38
2022-08-18T22:27:12.271Z,2.10
2022-08-18T22:29:35.535Z,2.10
2022-08-18T22:31:48.630Z,2.67
2022-08-18T22:33:51.079Z,1.77
2022-08-18T22:35:53.754Z,1.90
2022-08-18T22:37:55.421Z,1.83
2022-08-18T22:39:58.285Z,1.83
2022-08-18T22:42:00.061Z,1.48
2022-08-18T22:44:02.530Z,1.42
2022-08-18T22:46:04.304Z,1.88
2022-08-18T22:48:05.959Z,2.35
2022-08-18T22:50:07.848Z,1.70
2022-08-18T22:52:31.401Z,1.85
2022-08-18T22:54:33.466Z,1.50
2022-08-18T22:56:35.447Z,1.55
2022-08-18T22:58:42.332Z,1.58
2022-08-18T23:00:46.387Z,1.77
2022-08-18T23:02:47.996Z,1.70
2022-08-18T23:04:49.640Z,2.05
2022-08-18T23:06:52.132Z,1.70
2022-08-18T23:08:54.926Z,1.65
2022-08-18T23:10:57.608Z,1.35
2022-08-18T23:13:04.110Z,1.55
2022-08-18T23:15:12.007Z,2.63
2022-08-18T23:17:14.171Z,2.03
2022-08-18T23:19:16.868Z,2.30
2022-08-18T23:21:33.642Z,2.20
2022-08-18T23:23:37.335Z,1.65
2022-08-18T23:25:39.602Z,1.70
2022-08-18T23:27:43.096Z,1.45
2022-08-18T23:29:44.752Z,1.75
2022-08-18T23:31:46.816Z,1.75
2022-08-18T23:33:48.415Z,1.65
2022-08-18T23:35:50.503Z,1.58
2022-08-18T23:37:52.104Z,2.03
2022-08-18T23:39:53.770Z,2.17
2022-08-18T23:41:55.617Z,2.28
2022-08-18T23:43:57.712Z,2.90
2022-08-18T23:45:59.592Z,1.60
2022-08-18T23:48:01.319Z,1.90
2022-08-18T23:50:03.523Z,1.40
2022-08-18T23:52:05.743Z,1.95
2022-08-18T23:54:08.752Z,2.03
2022-08-18T23:56:10.296Z,1.40
2022-08-18T23:58:11.866Z,1.77
